createdAt,value
2023-02-06T00:00:56.734Z,12.07
2023-02-06T00:03:24.213Z,9.43
2023-02-06T00:05:57.675Z,12.73
2023-02-06T00:08:25.655Z,14.60
2023-02-06T00:10:53.223Z,14.10
2023-02-06T00:13:21.421Z,11.30
2023-02-06T00:15:49.006Z,11.43
2023-02-06T00:18:16.490Z,9.97
2023-02-06T00:20:43.978Z,11.77
2023-02-06T00:23:12.775Z,10.37
2023-02-06T00:25:40.236Z,12.20
2023-02-06T00:28:07.984Z,14.77
2023-02-06T00:30:35.637Z,10.83
2023-02-06T00:33:03.154Z,9.40
2023-02-06T00:35:30.676Z,11.40
2023-02-06T00:37:59.729Z,13.43
2023-02-06T00:40:28.575Z,13.70
2023-02-06T00:42:56.029Z,10.57
2023-02-06T00:45:23.519Z,10.07
2023-02-06T00:47:51.050Z,10.97
2023-02-06T00:50:18.907Z,10.00
2023-02-06T00:52:46.916Z,10.43
2023-02-06T00:55:14.817Z,11.83
2023-02-06T00:57:44.052Z,13.90
2023-02-06T01:00:12.682Z,10.63
2023-02-06T01:02:40.231Z,14.80
2023-02-06T01:05:08.403Z,12.87
2023-02-06T01:07:38.137Z,13.40
2023-02-06T01:10:06.541Z,14.30
2023-02-06T01:12:34.714Z,14.17
2023-02-06T01:15:03.686Z,14.40
2023-02-06T01:17:32.832Z,13.40
2023-02-06T01:20:00.491Z,19.23
2023-02-06T01:22:28.203Z,13.83
2023-02-06T01:24:55.724Z,13.90
2023-02-06T01:27:23.263Z,12.80
2023-02-06T01:29:50.788Z,11.03
2023-02-06T01:32:19.694Z,13.73
2023-02-06T01:34:47.256Z,15.33
2023-02-06T01:37:14.783Z,11.20
2023-02-06T01:39:42.243Z,11.40
2023-02-06T01:42:13.372Z,10.63
2023-02-06T01:44:41.224Z,15.23
2023-02-06T01:47:11.458Z,14.00
2023-02-06T01:49:44.474Z,11.87
2023-02-06T01:52:18.358Z,10.70
2023-02-06T01:54:49.240Z,10.70
2023-02-06T01:57:19.107Z,10.87
2023-02-06T01:59:51.946Z,9.87
2023-02-06T02:02:19.741Z,8.77
2023-02-06T02:04:49.237Z,11.00
2023-02-06T02:07:21.816Z,10.00
2023-02-06T02:09:49.374Z,10.17
2023-02-06T02:12:17.645Z,11.10
2023-02-06T02:14:47.848Z,13.57
2023-02-06T02:17:27.553Z,10.93
2023-02-06T02:20:27.173Z,14.47
2023-02-06T02:23:21.689Z,11.57
2023-02-06T02:26:09.802Z,11.17
2023-02-06T02:29:05.144Z,11.27
2023-02-06T02:31:53.914Z,11.10
2023-02-06T02:34:53.878Z,11.43
2023-02-06T02:37:32.259Z,10.40
2023-02-06T02:40:08.049Z,9.80
2023-02-06T02:42:42.533Z,11.20
2023-02-06T02:45:16.277Z,11.83
2023-02-06T02:47:50.540Z,13.50
2023-02-06T02:50:20.576Z,13.70
2023-02-06T02:52:48.044Z,11.93
2023-02-06T02:55:17.958Z,16.23
2023-02-06T02:57:50.507Z,15.70
2023-02-06T03:00:19.759Z,13.73
2023-02-06T03:02:50.028Z,13.47
2023-02-06T03:05:23.059Z,14.17
2023-02-06T03:08:02.599Z,16.80
2023-02-06T03:10:36.000Z,16.23
2023-02-06T03:13:08.998Z,15.97
2023-02-06T03:15:42.562Z,15.90
2023-02-06T03:18:14.248Z,17.40
2023-02-06T03:20:45.915Z,16.83
2023-02-06T03:23:21.345Z,16.47
2023-02-06T03:25:52.023Z,15.37
2023-02-06T03:28:26.322Z,14.83
2023-02-06T03:30:57.689Z,11.60
2023-02-06T03:33:29.561Z,11.67
2023-02-06T03:35:58.902Z,11.90
2023-02-06T03:38:28.561Z,10.43
2023-02-06T03:40:58.658Z,11.50
2023-02-06T03:43:29.058Z,10.70
2023-02-06T03:46:01.090Z,10.00
2023-02-06T03:48:33.544Z,12.30
2023-02-06T03:51:07.826Z,11.90
2023-02-06T03:53:37.911Z,12.20
2023-02-06T03:56:11.656Z,11.30
2023-02-06T03:58:39.360Z,11.63
2023-02-06T04:01:08.174Z,11.53
2023-02-06T04:03:36.290Z,11.50
2023-02-06T04:06:05.181Z,10.90
2023-02-06T04:08:32.650Z,13.67
2023-02-06T04:11:00.118Z,9.67
2023-02-06T04:13:27.593Z,10.50
2023-02-06T04:15:56.190Z,11.40
2023-02-06T04:18:24.449Z,11.70
2023-02-06T04:20:52.386Z,10.03
2023-02-06T04:23:21.536Z,11.97
2023-02-06T04:25:49.148Z,11.90
2023-02-06T04:28:16.655Z,11.90
2023-02-06T04:30:44.209Z,11.13
2023-02-06T04:33:11.763Z,10.00
2023-02-06T04:35:39.351Z,11.80
2023-02-06T04:38:06.820Z,11.10
2023-02-06T04:40:35.631Z,10.83
2023-02-06T04:43:03.087Z,14.40
2023-02-06T04:45:30.558Z,14.87
2023-02-06T04:47:59.548Z,13.87
2023-02-06T04:50:29.258Z,26.70
2023-02-06T04:52:56.773Z,13.40
2023-02-06T04:55:24.250Z,14.60
2023-02-06T04:57:53.079Z,14.13
2023-02-06T05:00:20.658Z,14.10
2023-02-06T05:02:48.160Z,16.47
2023-02-06T05:05:15.754Z,16.40
2023-02-06T05:07:43.233Z,12.33
2023-02-06T05:10:11.349Z,14.30
2023-02-06T05:12:38.858Z,12.50
2023-02-06T05:15:09.052Z,11.07
2023-02-06T05:17:37.141Z,14.13
2023-02-06T05:20:05.409Z,13.30
2023-02-06T05:22:32.940Z,15.27
2023-02-06T05:25:00.527Z,12.47
2023-02-06T05:27:28.083Z,13.77
2023-02-06T05:29:55.525Z,14.40
2023-02-06T05:32:24.336Z,12.43
2023-02-06T05:34:51.796Z,12.03
2023-02-06T05:37:19.255Z,34.03
2023-02-06T05:39:46.736Z,80.80
2023-02-06T05:42:14.213Z,43.97
2023-02-06T05:44:41.685Z,35.83
2023-02-06T05:47:09.195Z,40.47
2023-02-06T05:49:38.025Z,24.97
2023-02-06T05:52:05.889Z,22.40
2023-02-06T05:54:33.359Z,14.37
2023-02-06T05:57:00.819Z,31.07
2023-02-06T05:59:28.323Z,24.40
2023-02-06T06:01:55.952Z,16.90
2023-02-06T06:04:23.421Z,23.23
2023-02-06T06:06:52.313Z,19.47
2023-02-06T06:09:19.788Z,17.73
2023-02-06T06:11:47.690Z,19.20
2023-02-06T06:14:15.200Z,28.33
2023-02-06T06:16:42.674Z,19.40
2023-02-06T06:19:10.746Z,19.97
2023-02-06T06:21:38.315Z,18.50
2023-02-06T06:24:07.647Z,23.40
2023-02-06T06:26:35.215Z,22.80
2023-02-06T06:29:02.670Z,23.70
2023-02-06T06:31:30.276Z,22.23
2023-02-06T06:33:57.778Z,18.40
2023-02-06T06:36:25.239Z,17.60
2023-02-06T06:38:52.890Z,19.73
2023-02-06T06:41:21.795Z,16.60
2023-02-06T06:43:51.472Z,14.30
2023-02-06T06:46:19.218Z,16.03
2023-02-06T06:48:46.694Z,21.13
2023-02-06T06:51:14.170Z,21.20
2023-02-06T06:53:41.677Z,17.07
2023-02-06T06:56:13.294Z,13.60
2023-02-06T06:58:42.619Z,14.27
2023-02-06T07:01:10.369Z,11.70
2023-02-06T07:03:37.940Z,18.33
2023-02-06T07:06:06.444Z,17.47
2023-02-06T07:08:34.309Z,18.13
2023-02-06T07:11:01.793Z,19.20
2023-02-06T07:13:29.266Z,21.17
2023-02-06T07:15:58.100Z,14.27
2023-02-06T07:18:25.557Z,14.53
2023-02-06T07:20:53.067Z,14.80
2023-02-06T07:23:20.566Z,14.40
2023-02-06T07:25:48.149Z,18.53
2023-02-06T07:28:15.773Z,14.50
2023-02-06T07:30:43.333Z,20.53
2023-02-06T07:33:12.184Z,13.83
2023-02-06T07:35:39.642Z,17.47
2023-02-06T07:38:07.113Z,21.07
2023-02-06T07:40:44.633Z,18.17
2023-02-06T07:43:13.114Z,16.80
2023-02-06T07:45:40.691Z,15.63
2023-02-06T07:48:08.817Z,18.47
2023-02-06T07:50:37.679Z,17.73
2023-02-06T07:53:05.162Z,14.17
2023-02-06T07:55:32.615Z,15.37
2023-02-06T07:58:00.118Z,16.67
2023-02-06T08:00:27.573Z,17.07
2023-02-06T08:02:55.038Z,16.07
2023-02-06T08:05:22.505Z,22.27
2023-02-06T08:07:52.635Z,16.87
2023-02-06T08:10:20.343Z,17.83
2023-02-06T08:12:47.822Z,11.77
2023-02-06T08:15:15.784Z,17.63
2023-02-06T08:17:43.564Z,16.10
2023-02-06T08:20:12.258Z,17.47
2023-02-06T08:22:40.091Z,26.90
2023-02-06T08:25:09.745Z,51.83
2023-02-06T08:27:37.235Z,83.03
2023-02-06T08:30:05.661Z,92.57
2023-02-06T08:32:34.637Z,75.77
2023-02-06T08:35:02.218Z,90.97
2023-02-06T08:37:29.699Z,40.70
2023-02-06T08:39:57.166Z,16.60
2023-02-06T08:42:26.083Z,73.67
2023-02-06T08:44:54.105Z,60.20
2023-02-06T08:47:21.573Z,78.03
2023-02-06T08:49:50.465Z,75.87
2023-02-06T08:52:18.452Z,82.90
2023-02-06T08:54:45.913Z,61.07
2023-02-06T08:57:13.546Z,34.40
2023-02-06T08:59:42.372Z,27.27
2023-02-06T09:02:11.267Z,24.57
2023-02-06T09:04:39.050Z,20.80
2023-02-06T09:07:06.673Z,18.33
2023-02-06T09:09:34.175Z,15.00
2023-02-06T09:12:03.766Z,16.07
2023-02-06T09:14:32.008Z,15.17
2023-02-06T09:17:00.830Z,14.10
2023-02-06T09:19:28.301Z,13.50
2023-02-06T09:21:56.028Z,12.40
2023-02-06T09:24:23.768Z,22.40
2023-02-06T09:26:59.472Z,19.33
2023-02-06T09:29:31.368Z,16.17
2023-02-06T09:31:59.450Z,13.93
2023-02-06T09:34:28.543Z,15.27
2023-02-06T09:36:56.727Z,12.97
2023-02-06T09:39:25.132Z,13.47
2023-02-06T09:41:54.553Z,13.43
2023-02-06T09:44:25.400Z,12.73
2023-02-06T09:46:58.382Z,16.17
2023-02-06T09:49:39.022Z,11.27
2023-02-06T09:52:31.554Z,13.23
2023-02-06T09:55:07.444Z,11.43
2023-02-06T09:57:42.571Z,15.30
2023-02-06T10:00:26.773Z,14.90
2023-02-06T10:03:08.696Z,22.50
2023-02-06T10:05:48.221Z,40.37
2023-02-06T10:08:23.200Z,6.03
2023-02-06T10:10:54.151Z,9.87
2023-02-06T10:13:27.216Z,9.83
2023-02-06T10:15:58.694Z,8.83
2023-02-06T10:18:33.242Z,9.83
2023-02-06T10:21:07.648Z,6.67
2023-02-06T10:23:41.577Z,11.33
2023-02-06T10:26:17.144Z,8.67
2023-02-06T10:28:46.178Z,7.33
2023-02-06T10:31:36.037Z,8.37
2023-02-06T10:34:31.924Z,4.97
2023-02-06T10:37:15.294Z,3.23
2023-02-06T10:39:58.764Z,8.97
2023-02-06T10:42:37.664Z,8.37
2023-02-06T10:45:20.235Z,7.70
2023-02-06T10:47:54.520Z,12.00
2023-02-06T10:50:28.680Z,9.60
2023-02-06T10:53:04.930Z,6.20
2023-02-06T10:55:43.923Z,9.53
2023-02-06T10:58:17.112Z,8.93
2023-02-06T11:00:46.422Z,6.93
2023-02-06T11:03:16.569Z,6.60
2023-02-06T11:05:44.058Z,6.20
2023-02-06T11:08:21.438Z,7.27
2023-02-06T11:10:49.377Z,5.87
2023-02-06T11:13:25.013Z,5.10
2023-02-06T11:15:58.705Z,7.30
2023-02-06T11:18:31.351Z,8.07
2023-02-06T11:20:59.036Z,7.97
2023-02-06T11:23:29.278Z,12.07
2023-02-06T11:26:05.614Z,9.80
2023-02-06T11:28:34.974Z,7.30
2023-02-06T11:31:05.092Z,8.20
2023-02-06T11:33:41.830Z,10.63
2023-02-06T11:36:24.982Z,8.33
2023-02-06T11:38:58.769Z,7.10
2023-02-06T11:41:26.666Z,9.93
2023-02-06T11:44:01.528Z,6.87
2023-02-06T11:46:32.330Z,7.03
2023-02-06T11:49:08.914Z,6.80
2023-02-06T11:51:48.273Z,7.83
2023-02-06T11:54:23.549Z,15.37
2023-02-06T11:57:04.184Z,13.90
2023-02-06T11:59:34.774Z,10.30
2023-02-06T12:02:05.680Z,49.77
2023-02-06T12:04:37.473Z,85.43
2023-02-06T12:07:17.377Z,36.37
2023-02-06T12:09:46.224Z,31.23
2023-02-06T12:12:23.777Z,23.13
2023-02-06T12:14:55.217Z,12.67
2023-02-06T12:17:29.500Z,10.07
2023-02-06T12:20:02.610Z,14.57
2023-02-06T12:22:35.980Z,10.93
2023-02-06T12:25:06.068Z,10.03
2023-02-06T12:27:39.408Z,10.80
2023-02-06T12:30:23.250Z,11.23
2023-02-06T12:32:57.945Z,10.17
2023-02-06T12:35:35.759Z,11.37
2023-02-06T12:38:11.038Z,11.40
2023-02-06T12:40:46.742Z,12.07
2023-02-06T12:43:16.180Z,10.23
2023-02-06T12:45:51.081Z,11.40
2023-02-06T12:48:22.829Z,11.47
2023-02-06T12:51:05.416Z,10.70
2023-02-06T12:53:37.650Z,11.03
2023-02-06T12:56:21.144Z,9.53
2023-02-06T12:58:57.280Z,14.87
2023-02-06T13:01:38.865Z,8.50
2023-02-06T13:04:12.278Z,8.57
2023-02-06T13:06:47.435Z,10.23
2023-02-06T13:09:20.912Z,8.30
2023-02-06T13:11:49.812Z,7.13
2023-02-06T13:14:21.040Z,7.90
2023-02-06T13:16:54.854Z,11.10
2023-02-06T13:19:26.654Z,9.87
2023-02-06T13:22:16.697Z,8.93
2023-02-06T13:24:47.112Z,7.17
2023-02-06T13:27:16.295Z,7.70
2023-02-06T13:29:45.810Z,6.30
2023-02-06T13:32:42.989Z,7.93
2023-02-06T13:35:28.927Z,8.57
2023-02-06T13:38:27.856Z,8.57
2023-02-06T13:41:32.070Z,7.17
2023-02-06T13:44:05.204Z,9.40
2023-02-06T13:46:51.878Z,6.37
2023-02-06T13:49:39.339Z,7.83
2023-02-06T13:52:15.876Z,11.60
2023-02-06T13:54:56.577Z,14.57
2023-02-06T13:57:45.259Z,19.97
2023-02-06T14:00:16.394Z,7.97
2023-02-06T14:02:48.385Z,11.70
2023-02-06T14:05:19.799Z,9.07
2023-02-06T14:08:04.249Z,20.70
2023-02-06T14:10:45.053Z,10.63
2023-02-06T14:13:36.963Z,8.70
2023-02-06T14:16:19.160Z,11.43
2023-02-06T14:18:51.836Z,14.53
2023-02-06T14:21:32.677Z,8.47
2023-02-06T14:24:15.742Z,12.27
2023-02-06T14:26:53.354Z,11.30
2023-02-06T14:29:35.981Z,8.90
2023-02-06T14:32:23.294Z,11.10
2023-02-06T14:35:07.018Z,12.87
2023-02-06T14:37:46.714Z,10.97
2023-02-06T14:40:22.301Z,9.47
2023-02-06T14:42:51.486Z,7.93
2023-02-06T14:45:33.755Z,21.33
2023-02-06T14:48:15.478Z,19.27
2023-02-06T14:50:49.595Z,13.17
2023-02-06T14:53:22.775Z,12.17
2023-02-06T14:55:50.366Z,15.97
2023-02-06T14:58:25.969Z,14.40
2023-02-06T15:00:55.909Z,8.57
2023-02-06T15:03:28.166Z,10.40
2023-02-06T15:06:04.093Z,11.17
2023-02-06T15:08:33.338Z,10.50
2023-02-06T15:11:03.292Z,12.70
2023-02-06T15:13:35.601Z,11.50
2023-02-06T15:16:06.852Z,11.20
2023-02-06T15:18:35.506Z,11.50
2023-02-06T15:21:05.179Z,12.40
2023-02-06T15:23:50.140Z,12.60
2023-02-06T15:26:28.208Z,13.20
2023-02-06T15:28:58.013Z,12.63
2023-02-06T15:31:28.648Z,10.67
2023-02-06T15:33:59.188Z,13.43
2023-02-06T15:36:32.202Z,10.93
2023-02-06T15:39:00.387Z,12.07
2023-02-06T15:41:30.863Z,14.20
2023-02-06T15:44:02.321Z,11.47
2023-02-06T15:46:32.041Z,12.97
2023-02-06T15:48:59.903Z,18.47
2023-02-06T15:51:29.399Z,13.83
2023-02-06T15:54:08.362Z,12.00
2023-02-06T15:56:38.415Z,10.97
2023-02-06T15:59:14.036Z,11.00
2023-02-06T16:01:44.512Z,10.07
2023-02-06T16:04:16.701Z,10.10
2023-02-06T16:06:44.500Z,11.83
2023-02-06T16:09:21.884Z,9.67
2023-02-06T16:11:53.638Z,12.63
2023-02-06T16:14:26.042Z,11.93
2023-02-06T16:17:01.152Z,13.43
2023-02-06T16:19:40.374Z,12.50
2023-02-06T16:22:17.230Z,16.90
2023-02-06T16:24:44.890Z,12.47
2023-02-06T16:27:19.241Z,17.73
2023-02-06T16:29:50.834Z,17.97
2023-02-06T16:32:23.742Z,14.23
2023-02-06T16:34:51.689Z,20.13
2023-02-06T16:37:21.507Z,13.67
2023-02-06T16:39:49.535Z,10.90
2023-02-06T16:42:19.097Z,11.07
2023-02-06T16:44:50.105Z,12.20
2023-02-06T16:47:21.279Z,10.87
2023-02-06T16:49:49.562Z,12.57
2023-02-06T16:52:20.209Z,14.63
2023-02-06T16:54:48.445Z,13.87
2023-02-06T16:57:25.093Z,12.97
2023-02-06T16:59:52.601Z,12.50
2023-02-06T17:02:21.648Z,12.87
2023-02-06T17:04:49.220Z,14.33
2023-02-06T17:07:18.646Z,15.83
2023-02-06T17:09:48.651Z,16.10
2023-02-06T17:12:18.618Z,13.40
2023-02-06T17:14:46.351Z,14.80
2023-02-06T17:17:15.744Z,9.13
2023-02-06T17:19:44.638Z,15.97
2023-02-06T17:22:12.957Z,16.27
2023-02-06T17:24:41.356Z,11.93
2023-02-06T17:27:13.650Z,16.37
2023-02-06T17:29:41.215Z,14.93
2023-02-06T17:32:09.239Z,17.00
2023-02-06T17:34:37.406Z,14.00
2023-02-06T17:37:08.010Z,13.67
2023-02-06T17:39:35.513Z,19.70
2023-02-06T17:42:03.034Z,29.77
2023-02-06T17:44:30.542Z,18.07
2023-02-06T17:46:57.972Z,25.50
2023-02-06T17:49:25.491Z,27.87
2023-02-06T17:51:52.994Z,35.00
2023-02-06T17:54:21.851Z,30.20
2023-02-06T17:56:49.310Z,17.57
2023-02-06T17:59:16.989Z,16.73
2023-02-06T18:01:44.500Z,19.20
2023-02-06T18:04:12.668Z,16.37
2023-02-06T18:06:40.405Z,19.93
2023-02-06T18:09:07.868Z,19.87
2023-02-06T18:11:36.677Z,18.20
2023-02-06T18:14:04.251Z,19.23
2023-02-06T18:16:32.902Z,17.40
2023-02-06T18:19:00.835Z,21.80
2023-02-06T18:21:29.345Z,19.27
2023-02-06T18:23:57.097Z,21.97
2023-02-06T18:26:24.656Z,20.47
2023-02-06T18:28:53.589Z,18.07
2023-02-06T18:31:25.134Z,17.63
2023-02-06T18:33:52.994Z,20.80
2023-02-06T18:36:20.815Z,21.60
2023-02-06T18:38:48.341Z,21.43
2023-02-06T18:41:34.745Z,23.67
2023-02-06T18:44:05.640Z,19.90
2023-02-06T18:46:33.395Z,18.90
2023-02-06T18:49:01.078Z,24.10
2023-02-06T18:51:29.048Z,18.97
2023-02-06T18:53:56.514Z,21.27
2023-02-06T18:56:24.061Z,19.63
2023-02-06T18:58:51.605Z,23.53
2023-02-06T19:01:23.124Z,22.33
2023-02-06T19:03:51.999Z,25.50
2023-02-06T19:06:21.868Z,24.00
2023-02-06T19:08:49.331Z,21.87
2023-02-06T19:11:16.992Z,63.57
2023-02-06T19:13:44.609Z,80.40
2023-02-06T19:16:14.856Z,38.77
2023-02-06T19:18:46.116Z,56.80
2023-02-06T19:21:16.595Z,62.00
2023-02-06T19:23:44.472Z,102.83
2023-02-06T19:26:14.445Z,68.37
2023-02-06T19:28:43.552Z,44.37
2023-02-06T19:31:13.300Z,35.87
2023-02-06T19:33:43.010Z,95.03
2023-02-06T19:36:12.614Z,39.37
2023-02-06T19:38:41.246Z,27.87
2023-02-06T19:41:10.145Z,23.60
2023-02-06T19:43:38.075Z,30.37
2023-02-06T19:46:06.336Z,23.07
2023-02-06T19:48:33.924Z,25.97
2023-02-06T19:51:08.426Z,24.63
2023-02-06T19:53:36.645Z,23.50
2023-02-06T19:56:05.564Z,41.60
2023-02-06T19:58:33.298Z,92.20
2023-02-06T20:01:08.336Z,69.67
2023-02-06T20:03:35.914Z,62.93
2023-02-06T20:06:03.571Z,83.03
2023-02-06T20:08:32.695Z,96.40
2023-02-06T20:11:06.502Z,62.30
2023-02-06T20:13:34.550Z,62.43
2023-02-06T20:16:03.565Z,60.03
2023-02-06T20:18:31.432Z,55.80
2023-02-06T20:20:59.062Z,56.17
2023-02-06T20:23:27.080Z,45.00
2023-02-06T20:25:56.156Z,38.10
2023-02-06T20:28:24.722Z,67.33
2023-02-06T20:30:52.330Z,67.27
2023-02-06T20:33:19.894Z,68.80
2023-02-06T20:35:47.351Z,43.13
2023-02-06T20:38:14.828Z,47.00
2023-02-06T20:40:49.864Z,47.27
2023-02-06T20:43:18.650Z,47.00
2023-02-06T20:45:46.121Z,26.97
2023-02-06T20:48:13.610Z,22.83
2023-02-06T20:50:41.060Z,23.23
2023-02-06T20:53:08.621Z,23.57
2023-02-06T20:55:36.283Z,22.87
2023-02-06T20:58:04.262Z,21.90
2023-02-06T21:00:33.053Z,22.13
2023-02-06T21:03:00.553Z,21.20
2023-02-06T21:05:28.337Z,24.00
2023-02-06T21:07:57.559Z,24.47
2023-02-06T21:10:25.598Z,24.10
2023-02-06T21:12:53.077Z,21.77
2023-02-06T21:15:20.888Z,25.40
2023-02-06T21:17:49.710Z,20.83
2023-02-06T21:20:17.458Z,21.63
2023-02-06T21:22:44.931Z,21.10
2023-02-06T21:25:13.043Z,34.43
2023-02-06T21:27:40.519Z,40.73
2023-02-06T21:30:09.075Z,58.90
2023-02-06T21:32:36.569Z,63.27
2023-02-06T21:35:08.656Z,63.67
2023-02-06T21:37:36.120Z,62.20
2023-02-06T21:40:03.930Z,64.60
2023-02-06T21:42:31.375Z,62.47
2023-02-06T21:44:58.842Z,65.27
2023-02-06T21:47:26.395Z,63.17
2023-02-06T21:49:53.841Z,60.13
2023-02-06T21:52:22.750Z,61.87
2023-02-06T21:54:50.247Z,59.43
2023-02-06T21:57:17.738Z,56.43
2023-02-06T21:59:45.737Z,62.70
2023-02-06T22:02:13.423Z,59.80
2023-02-06T22:04:40.888Z,60.57
2023-02-06T22:07:11.475Z,55.83
2023-02-06T22:09:40.284Z,60.13
2023-02-06T22:12:07.971Z,58.40
2023-02-06T22:14:36.141Z,65.80
2023-02-06T22:17:03.631Z,65.33
2023-02-06T22:19:31.342Z,70.63
2023-02-06T22:21:58.829Z,26.40
2023-02-06T22:24:26.295Z,92.73
2023-02-06T22:26:55.088Z,157.00
2023-02-06T22:29:22.552Z,119.67
2023-02-06T22:31:50.033Z,140.57
2023-02-06T22:34:19.531Z,91.10
2023-02-06T22:36:47.800Z,59.23
2023-02-06T22:39:16.126Z,61.03
2023-02-06T22:41:45.506Z,26.67
2023-02-06T22:44:17.100Z,27.37
2023-02-06T22:46:46.145Z,22.27
2023-02-06T22:49:22.371Z,51.12
2023-02-06T22:51:49.817Z,47.63
2023-02-06T22:54:17.390Z,35.87
2023-02-06T22:56:45.585Z,21.73
2023-02-06T22:59:17.675Z,22.67
2023-02-06T23:01:47.553Z,22.33
2023-02-06T23:04:17.190Z,24.07
2023-02-06T23:06:45.490Z,23.20
2023-02-06T23:09:16.710Z,21.93
2023-02-06T23:11:44.419Z,20.87
2023-02-06T23:14:14.508Z,20.57
2023-02-06T23:16:42.778Z,21.47
2023-02-06T23:19:12.070Z,23.80
2023-02-06T23:21:41.293Z,21.33
2023-02-06T23:24:10.731Z,21.73
2023-02-06T23:26:38.313Z,22.47
2023-02-06T23:29:10.809Z,21.63
2023-02-06T23:31:39.932Z,24.10
2023-02-06T23:34:07.460Z,74.40
2023-02-06T23:36:35.227Z,119.73
2023-02-06T23:39:03.734Z,122.63
2023-02-06T23:41:31.238Z,129.70
2023-02-06T23:44:00.964Z,134.07
2023-02-06T23:46:31.186Z,123.87
2023-02-06T23:49:00.030Z,131.47
2023-02-06T23:51:27.973Z,123.67
2023-02-06T23:53:55.490Z,120.63
2023-02-06T23:56:24.822Z,118.87
2023-02-06T23:58:53.914Z,118.27
